createdAt,value
2019-03-12T00:00:35.866Z,95470.16
2019-03-12T00:03:05.054Z,95470.97
2019-03-12T00:05:33.732Z,95473.70
2019-03-12T00:08:02.784Z,95472.95
2019-03-12T00:10:31.450Z,95476.78
2019-03-12T00:13:00.169Z,95468.02
2019-03-12T00:15:29.384Z,95463.93
2019-03-12T00:17:57.994Z,95466.41
2019-03-12T00:20:26.613Z,95461.41
2019-03-12T00:22:55.288Z,95456.97
2019-03-12T00:25:23.942Z,95462.55
2019-03-12T00:27:52.538Z,95460.82
2019-03-12T00:30:21.169Z,95454.68
2019-03-12T00:32:49.763Z,95451.10
2019-03-12T00:35:18.619Z,95457.23
2019-03-12T00:37:47.217Z,95462.09
2019-03-12T00:40:15.866Z,95472.33
2019-03-12T00:42:44.707Z,95470.70
2019-03-12T00:45:13.390Z,95467.17
2019-03-12T00:47:42.224Z,95468.36
2019-03-12T00:50:10.990Z,95470.62
2019-03-12T00:52:39.597Z,95478.25
2019-03-12T00:55:08.271Z,95480.38
2019-03-12T00:57:37.170Z,95479.08
2019-03-12T01:00:06.271Z,95482.30
2019-03-12T01:02:35.131Z,95486.39
2019-03-12T01:05:03.835Z,95489.22
2019-03-12T01:07:32.419Z,95490.94
2019-03-12T01:10:01.117Z,95499.42
2019-03-12T01:12:29.722Z,95497.63
2019-03-12T01:14:58.311Z,95495.80
2019-03-12T01:17:26.907Z,95506.73
2019-03-12T01:19:55.515Z,95508.27
2019-03-12T01:22:24.343Z,95508.60
2019-03-12T01:24:52.942Z,95509.19
2019-03-12T01:27:21.544Z,95508.53
2019-03-12T01:29:50.179Z,95517.20
2019-03-12T01:32:18.817Z,95520.06
2019-03-12T01:34:47.420Z,95522.78
2019-03-12T01:37:16.241Z,95525.66
2019-03-12T01:39:45.072Z,95529.61
2019-03-12T01:42:13.660Z,95529.22
2019-03-12T01:44:42.248Z,95522.10
2019-03-12T01:47:10.839Z,95518.02
2019-03-12T01:49:39.735Z,95521.48
2019-03-12T01:52:08.349Z,95518.67
2019-03-12T01:54:37.207Z,95520.20
2019-03-12T01:57:06.038Z,95521.07
2019-03-12T01:59:34.908Z,95520.30
2019-03-12T02:02:03.506Z,95519.94
2019-03-12T02:04:32.175Z,95516.44
2019-03-12T02:07:00.983Z,95510.56
2019-03-12T02:09:30.807Z,95499.67
2019-03-12T02:11:59.388Z,95496.50
2019-03-12T02:14:29.343Z,95493.50
2019-03-12T02:16:57.963Z,95489.05
2019-03-12T02:19:26.547Z,95489.98
2019-03-12T02:21:55.131Z,95492.88
2019-03-12T02:24:24.259Z,95484.66
2019-03-12T02:26:53.540Z,95475.64
2019-03-12T02:29:22.390Z,95475.47
2019-03-12T02:31:51.298Z,95470.55
2019-03-12T02:34:20.135Z,95469.88
2019-03-12T02:36:49.000Z,95472.94
2019-03-12T02:39:17.679Z,95473.16
2019-03-12T02:41:46.283Z,95469.05
2019-03-12T02:44:14.978Z,95471.30
2019-03-12T02:46:43.576Z,95472.05
2019-03-12T02:49:12.220Z,95472.53
2019-03-12T02:51:41.081Z,95469.33
2019-03-12T02:54:09.736Z,95466.66
2019-03-12T02:56:38.344Z,95472.80
2019-03-12T02:59:06.942Z,95472.55
2019-03-12T03:01:35.568Z,95480.23
2019-03-12T03:04:04.489Z,95480.23
2019-03-12T03:06:38.601Z,95473.83
2019-03-12T03:09:07.881Z,95466.98
2019-03-12T03:11:36.760Z,95464.83
2019-03-12T03:14:05.359Z,95465.66
2019-03-12T03:16:34.246Z,95465.41
2019-03-12T03:19:02.945Z,95459.56
2019-03-12T03:21:31.598Z,95454.86
2019-03-12T03:24:00.178Z,95451.59
2019-03-12T03:26:29.101Z,95458.98
2019-03-12T03:28:57.926Z,95455.59
2019-03-12T03:31:26.506Z,95455.58
2019-03-12T03:33:55.096Z,95451.33
2019-03-12T03:36:24.453Z,95453.77
2019-03-12T03:38:53.058Z,95455.42
2019-03-12T03:41:21.676Z,95452.59
2019-03-12T03:43:50.627Z,95450.09
2019-03-12T03:46:19.550Z,95448.65
2019-03-12T03:48:48.170Z,95443.80
2019-03-12T03:51:16.740Z,95435.87
2019-03-12T03:53:45.349Z,95431.12
2019-03-12T03:56:13.975Z,95435.05
2019-03-12T03:58:42.581Z,95435.84
2019-03-12T04:01:11.357Z,95432.28
2019-03-12T04:03:40.187Z,95425.70
2019-03-12T04:06:08.764Z,95420.37
2019-03-12T04:08:37.613Z,95423.81
2019-03-12T04:11:06.195Z,95419.27
2019-03-12T04:13:34.971Z,95418.01
2019-03-12T04:16:03.885Z,95409.91
2019-03-12T04:18:32.792Z,95412.28
2019-03-12T04:21:01.435Z,95399.39
2019-03-12T04:23:30.060Z,95400.26
2019-03-12T04:25:58.740Z,95405.92
2019-03-12T04:28:27.388Z,95398.98
2019-03-12T04:30:56.212Z,95404.98
2019-03-12T04:34:17.688Z,95400.02
2019-03-12T04:36:47.573Z,95400.42
2019-03-12T04:39:16.447Z,95397.98
2019-03-12T04:41:45.095Z,95396.28
2019-03-12T04:44:13.706Z,95393.58
2019-03-12T04:46:42.769Z,95391.05
2019-03-12T04:49:11.482Z,95399.44
2019-03-12T04:51:40.435Z,95395.11
2019-03-12T04:54:09.373Z,95397.64
2019-03-12T04:56:37.994Z,95400.20
2019-03-12T04:59:06.856Z,95400.86
2019-03-12T05:01:35.459Z,95398.62
2019-03-12T05:04:04.072Z,95394.15
2019-03-12T05:06:32.786Z,95392.41
2019-03-12T05:09:01.383Z,95395.69
2019-03-12T05:11:30.238Z,95394.62
2019-03-12T05:14:29.583Z,95391.16
2019-03-12T05:17:01.266Z,95389.77
2019-03-12T05:19:29.956Z,95377.80
2019-03-12T05:21:58.950Z,95377.37
2019-03-12T05:24:27.550Z,95374.56
2019-03-12T05:26:56.218Z,95373.45
2019-03-12T05:29:24.968Z,95376.26
2019-03-12T05:31:53.849Z,95367.52
2019-03-12T05:34:23.379Z,95363.03
2019-03-12T05:36:52.174Z,95361.38
2019-03-12T05:39:20.810Z,95356.42
2019-03-12T05:41:49.645Z,95354.89
2019-03-12T05:44:18.310Z,95356.75
2019-03-12T05:46:47.176Z,95363.67
2019-03-12T05:49:15.800Z,95368.33
2019-03-12T05:51:44.419Z,95368.35
2019-03-12T05:54:13.078Z,95362.20
2019-03-12T05:56:41.732Z,95363.57
2019-03-12T05:59:10.421Z,95355.70
2019-03-12T06:01:39.117Z,95352.89
2019-03-12T06:04:07.781Z,95344.39
2019-03-12T06:06:36.940Z,95343.06
2019-03-12T06:09:07.002Z,95336.13
2019-03-12T06:11:36.135Z,95326.52
2019-03-12T06:14:05.396Z,95328.91
2019-03-12T06:16:33.989Z,95327.30
2019-03-12T06:19:02.598Z,95320.83
2019-03-12T06:21:31.189Z,95321.14
2019-03-12T06:24:00.174Z,95316.33
2019-03-12T06:26:28.802Z,95312.48
2019-03-12T06:28:57.404Z,95308.14
2019-03-12T06:31:51.248Z,95303.91
2019-03-12T06:34:37.554Z,95306.83
2019-03-12T06:37:16.224Z,95309.47
2019-03-12T06:39:50.628Z,95304.63
2019-03-12T06:42:50.227Z,95305.05
2019-03-12T06:45:40.725Z,95302.38
2019-03-12T06:48:27.380Z,95300.09
2019-03-12T06:51:18.127Z,95289.94
2019-03-12T06:54:20.940Z,95292.25
2019-03-12T06:57:05.982Z,95280.59
2019-03-12T06:59:56.432Z,95278.67
2019-03-12T07:02:46.936Z,95286.48
2019-03-12T07:05:34.580Z,95273.30
2019-03-12T07:08:22.236Z,95275.30
2019-03-12T07:11:00.021Z,95269.78
2019-03-12T07:13:53.824Z,95278.62
2019-03-12T07:16:40.526Z,95267.16
2019-03-12T07:19:40.428Z,95264.80
2019-03-12T07:22:28.527Z,95261.17
2019-03-12T07:25:02.882Z,95253.24
2019-03-12T07:27:48.449Z,95252.77
2019-03-12T07:30:38.910Z,95252.73
2019-03-12T07:33:19.286Z,95247.66
2019-03-12T07:35:58.372Z,95237.01
2019-03-12T07:38:43.871Z,95237.49
2019-03-12T07:41:31.297Z,95236.87
2019-03-12T07:44:10.840Z,95233.02
2019-03-12T07:46:46.605Z,95234.64
2019-03-12T07:49:44.056Z,95230.41
2019-03-12T07:52:19.096Z,95231.16
2019-03-12T07:55:12.969Z,95215.44
2019-03-12T07:58:00.274Z,95218.49
2019-03-12T08:01:02.961Z,95221.37
2019-03-12T08:03:49.403Z,95212.81
2019-03-12T08:06:28.938Z,95204.61
2019-03-12T08:09:13.419Z,95196.80
2019-03-12T08:12:01.124Z,95203.03
2019-03-12T08:14:36.401Z,95193.73
2019-03-12T08:17:24.170Z,95184.64
2019-03-12T08:20:19.643Z,95173.55
2019-03-12T08:23:16.360Z,95162.35
2019-03-12T08:26:21.908Z,95172.44
2019-03-12T08:29:08.230Z,95167.25
2019-03-12T08:31:45.421Z,95158.19
2019-03-12T08:34:24.953Z,95157.66
2019-03-12T08:37:11.327Z,95152.36
2019-03-12T08:40:11.067Z,95154.72
2019-03-12T08:42:54.516Z,95147.39
2019-03-12T08:45:34.185Z,95142.05
2019-03-12T08:48:13.143Z,95132.13
2019-03-12T08:50:51.028Z,95134.88
2019-03-12T08:53:27.081Z,95128.89
2019-03-12T08:56:06.035Z,95127.65
2019-03-12T08:58:47.497Z,95128.02
2019-03-12T09:01:39.229Z,95125.50
2019-03-12T09:04:34.440Z,95125.57
2019-03-12T09:07:19.029Z,95116.72
2019-03-12T09:09:56.585Z,95115.20
2019-03-12T09:12:34.303Z,95113.17
2019-03-12T09:15:20.605Z,95114.38
2019-03-12T09:18:04.626Z,95111.16
2019-03-12T09:20:50.788Z,95109.16
2019-03-12T09:23:38.180Z,95109.89
2019-03-12T09:26:21.559Z,95095.85
2019-03-12T09:29:07.805Z,95089.06
2019-03-12T09:32:07.755Z,95082.91
2019-03-12T09:34:58.170Z,95080.32
2019-03-12T09:37:45.855Z,95074.25
2019-03-12T09:40:33.677Z,95067.97
2019-03-12T09:43:21.730Z,95059.25
2019-03-12T09:45:56.419Z,95045.66
2019-03-12T09:48:30.954Z,95040.38
2019-03-12T09:51:05.494Z,95032.34
2019-03-12T09:53:39.312Z,95025.04
2019-03-12T09:56:14.504Z,95019.38
2019-03-12T09:58:50.598Z,95010.45
2019-03-12T10:01:29.608Z,95001.24
2019-03-12T10:04:26.311Z,94988.58
2019-03-12T10:07:06.480Z,94996.17
2019-03-12T10:09:42.241Z,94981.14
2019-03-12T10:12:18.409Z,94992.18
2019-03-12T10:14:58.736Z,94983.80
2019-03-12T10:17:44.246Z,94971.34
2019-03-12T10:20:30.646Z,94968.55
2019-03-12T10:23:05.295Z,94961.39
2019-03-12T10:25:41.732Z,94946.06
2019-03-12T10:28:22.511Z,94941.14
2019-03-12T10:30:59.114Z,94931.87
2019-03-12T10:33:45.506Z,94944.95
2019-03-12T10:36:31.241Z,94922.99
2019-03-12T10:39:47.839Z,94927.05
2019-03-12T10:42:35.715Z,94913.56
2019-03-12T10:45:09.914Z,94912.73
2019-03-12T10:47:38.753Z,94908.80
2019-03-12T10:50:07.483Z,94908.86
2019-03-12T10:52:36.070Z,94897.81
2019-03-12T10:55:12.873Z,94889.81
2019-03-12T10:57:35.148Z,94880.11
2019-03-12T11:00:03.965Z,94877.15
2019-03-12T11:02:32.569Z,94856.19
2019-03-12T11:05:01.171Z,94861.12
2019-03-12T11:07:29.893Z,94863.27
2019-03-12T11:09:58.744Z,94851.38
2019-03-12T11:12:27.371Z,94848.86
2019-03-12T11:14:56.023Z,94851.85
2019-03-12T11:17:24.843Z,94853.47
2019-03-12T11:19:53.522Z,94846.20
2019-03-12T11:22:22.371Z,94845.16
2019-03-12T11:24:50.961Z,94841.00
2019-03-12T11:27:20.436Z,94836.21
2019-03-12T11:29:49.032Z,94834.73
2019-03-12T11:32:17.629Z,94827.61
2019-03-12T11:34:46.253Z,94828.67
2019-03-12T11:37:15.055Z,94820.05
2019-03-12T11:39:44.122Z,94814.20
2019-03-12T11:42:12.711Z,94808.25
2019-03-12T11:44:41.783Z,94796.11
2019-03-12T11:47:10.804Z,94788.28
2019-03-12T11:49:39.576Z,94782.47
2019-03-12T11:52:08.270Z,94784.53
2019-03-12T11:54:36.854Z,94776.29
2019-03-12T11:57:05.511Z,94777.03
2019-03-12T11:59:34.637Z,94771.84
2019-03-12T12:02:03.249Z,94766.73
2019-03-12T12:04:31.910Z,94760.27
2019-03-12T12:07:00.500Z,94747.48
2019-03-12T12:09:29.395Z,94754.31
2019-03-12T12:11:58.484Z,94730.21
2019-03-12T12:14:27.088Z,94726.54
2019-03-12T12:16:55.739Z,94724.22
2019-03-12T12:19:24.575Z,94719.87
2019-03-12T12:21:53.217Z,94700.86
2019-03-12T12:24:22.038Z,94699.42
2019-03-12T12:26:50.618Z,94690.78
2019-03-12T12:29:19.203Z,94684.53
2019-03-12T12:31:47.867Z,94680.12
2019-03-12T12:34:16.451Z,94649.80
2019-03-12T12:36:45.463Z,94649.80
2019-03-12T12:39:14.042Z,94654.00
2019-03-12T12:41:42.625Z,94646.11
2019-03-12T12:44:11.564Z,94638.88
2019-03-12T12:46:40.392Z,94633.62
2019-03-12T12:49:09.442Z,94623.01
2019-03-12T12:51:38.098Z,94623.01
2019-03-12T12:54:09.585Z,94616.84
2019-03-12T12:56:37.473Z,94618.59
2019-03-12T12:59:06.052Z,94611.39
2019-03-12T13:01:34.929Z,94597.89
2019-03-12T13:04:03.747Z,94600.38
2019-03-12T13:06:32.416Z,94584.28
2019-03-12T13:09:01.076Z,94592.28
2019-03-12T13:11:29.665Z,94583.10
2019-03-12T13:13:58.495Z,94575.08
2019-03-12T13:16:27.133Z,94569.38
2019-03-12T13:18:55.829Z,94549.68
2019-03-12T13:21:24.461Z,94546.45
2019-03-12T13:23:53.068Z,94541.38
2019-03-12T13:26:21.667Z,94541.38
2019-03-12T13:28:50.413Z,94536.72
2019-03-12T13:31:19.493Z,94541.14
2019-03-12T13:33:48.384Z,94541.41
2019-03-12T13:36:18.266Z,94530.77
2019-03-12T13:38:48.257Z,94533.12
2019-03-12T13:41:17.276Z,94520.66
2019-03-12T13:43:46.394Z,94513.95
2019-03-12T13:46:15.154Z,94509.75
2019-03-12T13:48:43.741Z,94504.59
2019-03-12T13:51:12.316Z,94491.92
2019-03-12T13:53:40.942Z,94484.64
2019-03-12T13:56:09.840Z,94484.81
2019-03-12T13:58:38.551Z,94467.02
2019-03-12T14:01:07.363Z,94460.73
2019-03-12T14:03:36.805Z,94455.37
2019-03-12T14:06:05.383Z,94451.91
2019-03-12T14:08:33.964Z,94435.48
2019-03-12T14:11:03.073Z,94431.69
2019-03-12T14:13:31.888Z,94415.43
2019-03-12T14:16:00.541Z,94408.20
2019-03-12T14:18:29.623Z,94408.38
2019-03-12T14:21:12.866Z,94396.43
2019-03-12T14:23:48.978Z,94378.25
2019-03-12T14:26:17.710Z,94383.31
2019-03-12T14:28:46.358Z,94367.10
2019-03-12T14:31:15.015Z,94352.11
2019-03-12T14:33:43.912Z,94350.23
2019-03-12T14:36:12.603Z,94335.66
2019-03-12T14:38:41.449Z,94322.47
2019-03-12T14:41:10.842Z,94323.69
2019-03-12T14:43:40.215Z,94316.39
2019-03-12T14:46:08.898Z,94309.15
2019-03-12T14:48:51.536Z,94299.75
2019-03-12T14:51:29.593Z,94294.42
2019-03-12T14:53:58.447Z,94274.39
2019-03-12T14:56:29.051Z,94265.75
2019-03-12T14:58:58.100Z,94264.91
2019-03-12T15:01:27.182Z,94251.78
2019-03-12T15:03:55.799Z,94243.20
2019-03-12T15:06:27.965Z,94235.55
2019-03-12T15:08:55.976Z,94231.74
2019-03-12T15:11:24.606Z,94224.06
2019-03-12T15:13:53.499Z,94221.43
2019-03-12T15:16:22.100Z,94219.14
2019-03-12T15:18:52.007Z,94204.05
2019-03-12T15:21:20.981Z,94204.38
2019-03-12T15:23:49.637Z,94173.36
2019-03-12T15:26:18.604Z,94171.05
2019-03-12T15:28:48.899Z,94154.24
2019-03-12T15:31:17.963Z,94158.24
2019-03-12T15:33:46.796Z,94169.72
2019-03-12T15:36:15.436Z,94151.83
2019-03-12T15:38:44.044Z,94145.47
2019-03-12T15:41:12.624Z,94105.62
2019-03-12T15:43:41.217Z,94119.61
2019-03-12T15:46:10.133Z,94141.25
2019-03-12T15:48:39.516Z,94117.17
2019-03-12T15:51:08.637Z,94125.23
2019-03-12T15:53:37.210Z,94124.74
2019-03-12T15:56:05.787Z,94113.99
2019-03-12T15:58:34.363Z,94108.41
2019-03-12T16:01:03.285Z,94096.34
2019-03-12T16:03:31.865Z,94083.70
2019-03-12T16:06:00.472Z,94086.23
2019-03-12T16:08:29.092Z,94077.45
2019-03-12T16:10:58.644Z,94066.58
2019-03-12T16:13:27.283Z,94080.88
2019-03-12T16:15:56.664Z,94054.25
2019-03-12T16:18:25.274Z,94066.53
2019-03-12T16:20:53.949Z,94039.23
2019-03-12T16:23:22.938Z,94039.53
2019-03-12T16:25:51.545Z,94041.03
2019-03-12T16:28:20.366Z,94050.64
2019-03-12T16:30:49.211Z,94022.50
2019-03-12T16:33:17.804Z,94022.36
2019-03-12T16:35:46.438Z,94027.59
2019-03-12T16:38:15.022Z,94014.52
2019-03-12T16:40:43.688Z,94030.14
2019-03-12T16:43:12.290Z,94007.46
2019-03-12T16:45:41.370Z,94006.23
2019-03-12T16:48:09.945Z,93986.73
2019-03-12T16:50:38.798Z,93973.19
2019-03-12T16:53:07.400Z,93945.95
2019-03-12T16:55:36.159Z,93961.76
2019-03-12T16:58:04.758Z,93947.78
2019-03-12T17:00:33.582Z,93937.42
2019-03-12T17:03:02.446Z,93935.36
2019-03-12T17:05:31.068Z,93895.88
2019-03-12T17:07:59.651Z,93906.61
2019-03-12T17:10:28.376Z,93902.19
2019-03-12T17:12:57.065Z,93893.08
2019-03-12T17:15:25.694Z,93897.70
2019-03-12T17:17:54.281Z,93875.27
2019-03-12T17:20:23.487Z,93866.60
2019-03-12T17:22:52.092Z,93866.55
2019-03-12T17:25:21.017Z,93870.00
2019-03-12T17:27:51.705Z,93857.87
2019-03-12T17:30:20.239Z,93852.20
2019-03-12T17:32:48.980Z,93842.62
2019-03-12T17:35:20.213Z,93832.59
2019-03-12T17:37:48.881Z,93819.92
2019-03-12T17:40:19.310Z,93814.26
2019-03-12T17:42:48.393Z,93817.24
2019-03-12T17:45:17.280Z,93804.01
2019-03-12T17:47:46.134Z,93800.12
2019-03-12T17:50:14.807Z,93786.34
2019-03-12T17:52:43.402Z,93802.17
2019-03-12T17:55:12.649Z,93783.11
2019-03-12T17:57:41.572Z,93783.90
2019-03-12T18:00:13.385Z,93780.02
2019-03-12T18:02:42.984Z,93774.36
2019-03-12T18:05:11.961Z,93762.25
2019-03-12T18:07:40.633Z,93771.77
2019-03-12T18:10:10.500Z,93760.42
2019-03-12T18:12:39.323Z,93753.70
2019-03-12T18:15:09.497Z,93773.02
2019-03-12T18:17:38.105Z,93759.40
2019-03-12T18:20:08.476Z,93743.58
2019-03-12T18:22:39.017Z,93748.06
2019-03-12T18:25:10.956Z,93736.42
2019-03-12T18:27:39.525Z,93738.98
2019-03-12T18:30:10.896Z,93722.50
2019-03-12T18:32:40.087Z,93715.86
2019-03-12T18:35:09.255Z,93726.94
2019-03-12T18:37:38.904Z,93741.84
2019-03-12T18:40:09.843Z,93737.25
2019-03-12T18:42:38.655Z,93724.10
2019-03-12T18:45:09.152Z,93736.22
2019-03-12T18:47:38.218Z,93706.51
2019-03-12T18:50:09.324Z,93708.36
2019-03-12T18:52:38.153Z,93705.59
2019-03-12T18:55:07.537Z,93702.98
2019-03-12T18:59:56.734Z,93694.08
2019-03-12T19:02:28.620Z,93687.42
2019-03-12T19:04:57.461Z,93676.03
2019-03-12T19:07:26.107Z,93676.92
2019-03-12T19:09:54.935Z,93667.45
2019-03-12T19:12:23.637Z,93652.11
2019-03-12T19:14:52.225Z,93663.50
2019-03-12T19:17:20.850Z,93649.23
2019-03-12T19:19:49.515Z,93630.05
2019-03-12T19:22:18.139Z,93630.56
2019-03-12T19:24:47.435Z,93624.98
2019-03-12T19:27:16.264Z,93632.52
2019-03-12T19:29:44.836Z,93629.33
2019-03-12T19:32:28.375Z,93638.08
2019-03-12T19:34:57.104Z,93625.38
2019-03-12T19:37:25.746Z,93604.88
2019-03-12T19:39:54.563Z,93602.85
2019-03-12T19:42:23.406Z,93596.60
2019-03-12T19:44:52.224Z,93587.17
2019-03-12T19:47:21.460Z,93596.30
2019-03-12T19:49:50.612Z,93581.06
2019-03-12T19:52:19.263Z,93575.33
2019-03-12T19:54:48.175Z,93574.19
2019-03-12T19:57:16.805Z,93573.80
2019-03-12T19:59:45.676Z,93573.19
2019-03-12T20:02:16.550Z,93576.62
2019-03-12T20:04:47.541Z,93563.53
2019-03-12T20:07:15.849Z,93558.95
2019-03-12T20:10:20.917Z,93559.31
2019-03-12T20:13:24.014Z,93542.41
2019-03-12T20:16:30.808Z,93530.91
2019-03-12T20:20:01.827Z,93515.09
2019-03-12T20:23:07.736Z,93510.13
2019-03-12T20:26:13.796Z,93500.91
2019-03-12T20:29:09.069Z,93504.57
2019-03-12T20:32:14.518Z,93493.33
2019-03-12T20:35:25.696Z,93477.41
2019-03-12T20:38:49.972Z,93470.92
2019-03-12T20:41:46.188Z,93495.11
2019-03-12T20:44:50.914Z,93490.69
2019-03-12T20:48:01.474Z,93494.30
2019-03-12T20:50:58.134Z,93493.19
2019-03-12T20:54:10.097Z,93501.59
2019-03-12T20:57:24.912Z,93483.80
2019-03-12T21:00:37.276Z,93479.74
2019-03-12T21:03:47.287Z,93485.88
2019-03-12T21:07:02.431Z,93489.58
2019-03-12T21:10:07.440Z,93486.19
2019-03-12T21:13:12.237Z,93489.05
2019-03-12T21:16:13.935Z,93471.70
2019-03-12T21:19:29.998Z,93467.83
2019-03-12T21:22:48.594Z,93456.42
2019-03-12T21:25:34.278Z,93440.90
2019-03-12T21:28:42.489Z,93445.59
2019-03-12T21:31:14.694Z,93436.00
2019-03-12T21:33:41.701Z,93431.20
2019-03-12T21:36:10.532Z,93424.08
2019-03-12T21:38:39.110Z,93420.45
2019-03-12T21:41:07.884Z,93409.97
2019-03-12T21:43:36.534Z,93412.50
2019-03-12T21:46:05.369Z,93419.33
2019-03-12T21:48:33.957Z,93412.16
2019-03-12T21:51:02.803Z,93400.07
2019-03-12T21:53:31.527Z,93404.55
2019-03-12T21:56:00.140Z,93398.78
2019-03-12T21:58:28.796Z,93397.02
2019-03-12T22:00:57.473Z,93384.02
2019-03-12T22:03:26.096Z,93391.08
2019-03-12T22:05:54.911Z,93382.78
2019-03-12T22:08:25.267Z,93375.42
2019-03-12T22:10:54.518Z,93372.98
2019-03-12T22:13:23.154Z,93362.25
2019-03-12T22:15:51.859Z,93343.50
2019-03-12T22:18:20.722Z,93368.13
2019-03-12T22:20:51.375Z,93367.79
2019-03-12T22:23:26.214Z,93361.47
2019-03-12T22:25:56.083Z,93352.94
2019-03-12T22:28:24.707Z,93349.49
2019-03-12T22:30:53.298Z,93356.58
2019-03-12T22:33:21.891Z,93338.80
2019-03-12T22:35:50.495Z,93348.80
2019-03-12T22:38:19.089Z,93343.86
2019-03-12T22:40:47.939Z,93359.02
2019-03-12T22:43:16.525Z,93354.63
2019-03-12T22:45:45.114Z,93366.01
2019-03-12T22:48:13.958Z,93362.95
2019-03-12T22:50:42.624Z,93395.49
2019-03-12T22:53:11.471Z,93402.81
2019-03-12T22:55:40.139Z,93430.98
2019-03-12T22:58:08.708Z,93427.62
2019-03-12T23:00:41.210Z,93450.88
2019-03-12T23:03:10.116Z,93495.13
2019-03-12T23:05:38.683Z,93483.25
2019-03-12T23:08:07.359Z,93487.08
2019-03-12T23:10:36.499Z,93507.23
2019-03-12T23:13:05.325Z,93502.56
2019-03-12T23:15:33.979Z,93536.59
2019-03-12T23:18:02.946Z,93516.31
2019-03-12T23:20:31.494Z,93506.55
2019-03-12T23:23:00.153Z,93510.16
2019-03-12T23:25:28.756Z,93521.14
2019-03-12T23:27:57.731Z,93543.83
2019-03-12T23:30:28.636Z,93561.50
2019-03-12T23:32:57.145Z,93547.16
2019-03-12T23:35:25.982Z,93543.11
2019-03-12T23:37:54.682Z,93542.28
2019-03-12T23:40:23.504Z,93535.71
2019-03-12T23:42:52.150Z,93542.55
2019-03-12T23:45:21.179Z,93558.48
2019-03-12T23:47:50.534Z,93556.73
2019-03-12T23:50:19.474Z,93573.44
2019-03-12T23:52:48.391Z,93584.17
2019-03-12T23:55:17.454Z,93581.45
2019-03-12T23:57:46.457Z,93590.94
